Time;durP1;ratioP1;P1;durP2;ratioP2;P2;SDS_P1;SDS_P2;PMS_P1;PMS_P2;Temp;Humidity;BMP_temperature;BMP_pressure;BME280_temperature;BME280_humidity;BME280_pressure;Samples;Min_cycle;Max_cycle;Signal;HPM_P1;HPM_P2
2022/11/29 00:00:30;;;;;;;3.87;2.20;;;12.40;99.90;;;12.86;66.38;100954.69;4820101;28;99409;-48
2022/11/29 00:02:56;;;;;;;2.63;2.00;;;12.40;99.90;;;12.88;66.19;100953.75;4812400;28;98970;-49
2022/11/29 00:05:22;;;;;;;6.10;2.10;;;12.40;99.90;;;12.94;65.84;100960.56;4803521;28;98302;-48
2022/11/29 00:07:48;;;;;;;5.37;2.40;;;12.50;99.90;;;12.93;65.53;100961.50;4814931;28;112813;-47
2022/11/29 00:10:14;;;;;;;3.20;2.20;;;12.50;99.90;;;12.91;65.86;100964.19;4817714;28;99532;-50
2022/11/29 00:12:40;;;;;;;4.57;2.20;;;12.40;99.90;;;12.89;65.66;100962.53;4819465;28;98827;-50
2022/11/29 00:15:06;;;;;;;3.60;2.50;;;12.40;99.90;;;12.88;66.09;100963.47;4803547;28;98503;-49
2022/11/29 00:17:32;;;;;;;4.77;2.60;;;12.40;99.90;;;12.87;66.27;100972.31;4818184;28;98014;-50
2022/11/29 00:19:58;;;;;;;3.17;1.83;;;12.50;99.90;;;12.88;66.37;100968.75;4814148;28;103585;-55
2022/11/29 00:22:24;;;;;;;3.57;2.10;;;12.50;99.90;;;12.88;66.22;100969.63;4813752;28;102305;-49
2022/11/29 00:24:50;;;;;;;4.73;2.67;;;12.50;99.90;;;12.90;66.03;100969.56;4819393;28;98308;-47
2022/11/29 00:27:17;;;;;;;2.37;1.93;;;12.40;99.90;;;12.90;66.17;100964.28;4817224;28;108833;-48
2022/11/29 00:29:43;;;;;;;3.13;2.40;;;12.50;99.90;;;12.90;66.20;100970.44;4820197;28;102250;-50
2022/11/29 00:32:09;;;;;;;4.73;2.67;;;12.50;99.90;;;12.89;66.32;100968.69;4815825;28;110854;-45
2022/11/29 00:34:35;;;;;;;2.00;1.80;;;12.50;99.90;;;12.88;66.01;100969.63;4818311;28;102386;-49
2022/11/29 00:37:01;;;;;;;3.93;2.23;;;12.50;99.90;;;12.87;65.92;100977.59;4817251;28;97513;-46
2022/11/29 00:39:27;;;;;;;5.23;2.70;;;12.50;99.90;;;12.82;66.17;100975.16;4820272;28;97505;-48
2022/11/29 00:41:53;;;;;;;4.67;2.70;;;12.40;99.90;;;12.81;66.42;100973.44;4805436;29;113277;-49
2022/11/29 00:44:19;;;;;;;2.50;1.60;;;12.40;99.90;;;12.76;66.28;100970.97;4816499;28;112812;-52
2022/11/29 00:46:44;;;;;;;3.60;2.10;;;12.40;99.90;;;12.77;65.75;100975.34;4819449;28;96968;-52
2022/11/29 00:49:10;;;;;;;10.30;2.40;;;12.40;99.90;;;12.76;66.08;100976.25;4815684;28;99513;-52
2022/11/29 00:51:36;;;;;;;3.40;2.10;;;12.40;99.90;;;12.78;66.47;100974.41;4839355;28;98126;-51
2022/11/29 00:54:02;;;;;;;3.47;2.27;;;12.40;99.90;;;12.82;65.59;100976.00;4825185;28;109867;-49
2022/11/29 00:56:28;;;;;;;3.33;1.70;;;12.40;99.90;;;12.82;66.01;100975.16;4843787;28;97355;-53
2022/11/29 00:58:54;;;;;;;2.83;1.83;;;12.40;99.90;;;12.85;65.52;100974.16;4840600;28;97407;-57
2022/11/29 01:01:20;;;;;;;3.07;1.93;;;12.40;99.90;;;12.86;65.76;100978.53;4837214;28;97393;-48
2022/11/29 01:03:46;;;;;;;3.80;2.10;;;12.50;99.90;;;12.88;65.51;100974.91;4851455;28;97625;-48
2022/11/29 01:06:15;;;;;;;3.43;1.83;;;12.50;99.90;;;12.87;65.13;100974.94;4843184;28;97547;-50
2022/11/29 01:08:41;;;;;;;3.10;1.80;;;12.50;99.90;;;12.87;65.89;100974.94;4845012;28;98182;-50
2022/11/29 01:11:11;;;;;;;2.83;1.60;;;12.50;99.90;;;12.86;65.68;100981.19;4841587;28;97095;-48
2022/11/29 01:13:38;;;;;;;4.57;2.13;;;12.40;99.90;;;12.84;65.94;100978.59;4852383;28;96938;-52
2022/11/29 01:16:05;;;;;;;4.10;2.03;;;12.40;99.90;;;12.85;66.01;100974.16;4843510;28;96919;-50
2022/11/29 01:18:32;;;;;;;3.23;2.27;;;12.50;99.90;;;12.89;65.53;100966.06;4853247;28;98439;-52
2022/11/29 01:21:11;;;;;;;3.53;2.03;;;12.40;99.90;;;12.91;65.56;100973.94;4831984;28;101752;-50
2022/11/29 01:23:37;;;;;;;7.37;2.33;;;12.50;99.90;;;12.89;65.70;100967.84;4841523;28;96972;-51
2022/11/29 01:26:08;;;;;;;3.50;1.83;;;12.50;99.90;;;12.85;65.68;100971.50;4838594;28;97256;-51
2022/11/29 01:28:35;;;;;;;6.47;2.43;;;12.40;99.90;;;12.84;65.91;100973.28;4841039;28;97448;-52
2022/11/29 01:31:10;;;;;;;5.60;2.43;;;12.40;99.90;;;12.89;65.51;100978.44;4839623;28;96740;-49
2022/11/29 01:33:37;;;;;;;4.57;2.43;;;12.50;99.90;;;12.91;65.26;100969.50;4838732;28;96953;-51
2022/11/29 01:36:04;;;;;;;5.17;2.10;;;12.50;99.90;;;12.93;65.36;100977.38;4840305;28;96935;-52
2022/11/29 01:38:31;;;;;;;3.43;2.13;;;12.50;99.90;;;12.93;65.37;100977.38;4853147;28;97664;-54
2022/11/29 01:41:15;;;;;;;2.33;1.83;;;12.50;99.90;;;12.94;65.66;100976.44;4841411;28;110202;-51
2022/11/29 01:44:02;;;;;;;4.20;1.83;;;12.50;99.90;;;12.91;65.54;100982.72;4842503;28;97232;-53
2022/11/29 01:46:32;;;;;;;4.03;2.17;;;12.50;99.90;;;12.90;65.54;100975.72;4839325;28;97477;-52
2022/11/29 01:49:05;;;;;;;6.37;2.00;;;12.50;99.90;;;12.88;65.47;100980.22;4846425;28;99259;-51
2022/11/29 01:51:33;;;;;;;1.57;1.40;;;12.50;99.90;;;12.85;65.75;100984.75;4842217;28;96939;-54
2022/11/29 01:53:59;;;;;;;3.23;2.30;;;12.40;99.90;;;12.84;65.89;100993.63;4828646;28;97277;-46
2022/11/29 01:56:27;;;;;;;4.03;2.50;;;12.40;99.90;;;12.83;65.82;100987.47;4841470;28;110780;-48
2022/11/29 01:58:53;;;;;;;3.17;1.97;;;12.40;99.90;;;12.91;65.07;100989.81;4842751;28;97716;-50
2022/11/29 02:01:19;;;;;;;1.90;1.60;;;12.50;99.90;;;12.91;65.35;100995.97;4840385;28;104593;-47
2022/11/29 02:03:45;;;;;;;5.23;2.00;;;12.50;99.90;;;13.00;64.93;100995.59;4852323;28;97038;-48
2022/11/29 02:06:10;;;;;;;4.33;2.10;;;12.60;99.90;;;12.96;65.09;100993.13;4842139;28;104077;-48
2022/11/29 02:08:41;;;;;;;4.93;3.10;;;12.50;99.90;;;12.99;64.83;100995.66;4841259;28;97603;-46
2022/11/29 02:11:45;;;;;;;4.43;2.20;;;12.50;99.90;;;13.08;64.43;100997.94;4845486;28;97202;-52
2022/11/29 02:14:40;;;;;;;1.80;1.33;;;12.60;99.90;;;13.06;64.67;100999.78;4832720;28;97171;-49
2022/11/29 02:17:24;;;;;;;5.00;2.33;;;12.60;99.90;;;13.16;63.96;100995.81;4839471;28;97307;-47
2022/11/29 02:20:30;;;;;;;4.33;2.17;;;12.70;99.90;;;13.21;63.76;101001.00;4839514;28;97027;-48
2022/11/29 02:23:10;;;;;;;3.40;1.87;;;12.70;99.90;;;13.21;64.02;101004.50;4837640;28;101340;-51
2022/11/29 02:26:11;;;;;;;4.47;2.60;;;12.70;99.90;;;13.16;64.10;101001.13;4846565;28;96861;-48
2022/11/29 02:28:43;;;;;;;3.40;2.07;;;12.70;99.90;;;13.13;64.58;101001.25;4834123;28;97492;-47
2022/11/29 02:31:51;;;;;;;4.67;1.93;;;12.70;99.90;;;13.09;65.05;100994.38;4838869;28;97405;-48
2022/11/29 02:34:47;;;;;;;5.70;2.10;;;12.60;99.90;;;13.02;65.13;100999.06;4839027;28;97017;-49
2022/11/29 02:37:37;;;;;;;2.33;1.77;;;12.60;99.90;;;12.96;65.61;101001.06;4838141;28;97512;-52
2022/11/29 02:40:24;;;;;;;3.80;2.30;;;12.50;99.90;;;12.89;65.67;101007.56;4820054;28;97484;-48
2022/11/29 02:43:39;;;;;;;2.57;1.93;;;12.50;99.90;;;12.82;66.51;101002.47;4839161;28;97564;-50
2022/11/29 02:46:38;;;;;;;3.77;2.73;;;12.40;99.90;;;12.84;66.39;101004.19;4825285;28;101401;-48
2022/11/29 02:49:22;;;;;;;3.70;2.03;;;12.40;99.90;;;12.82;66.22;101002.47;4840475;28;103840;-46
2022/11/29 02:52:14;;;;;;;5.13;2.70;;;12.40;99.90;;;12.86;65.95;101007.66;4842759;28;96995;-47
2022/11/29 02:55:20;;;;;;;5.07;2.60;;;12.40;99.90;;;12.85;66.23;101016.50;4840283;28;100967;-45
2022/11/29 02:58:08;;;;;;;7.03;3.13;;;12.50;99.90;;;12.81;66.44;101014.00;4839297;28;102731;-49
2022/11/29 03:00:42;;;;;;;3.43;1.70;;;12.40;99.90;;;12.81;66.36;101021.94;4830813;28;97244;-45
2022/11/29 03:03:25;;;;;;;5.73;2.23;;;12.40;99.90;;;12.81;66.66;101015.78;4825212;28;97469;-48
2022/11/29 03:06:30;;;;;;;4.07;1.67;;;12.40;99.90;;;12.85;66.16;101021.81;4827631;29;97557;-51
2022/11/29 03:09:35;;;;;;;4.33;2.00;;;12.40;99.90;;;12.87;66.05;101018.19;4826748;28;100892;-49
2022/11/29 03:12:23;;;;;;;3.60;2.13;;;12.50;99.90;;;12.88;66.15;101027.00;4835399;28;97232;-45
2022/11/29 03:15:03;;;;;;;3.53;2.23;;;12.50;99.90;;;12.87;66.45;101026.13;4841614;28;97139;-50
2022/11/29 03:18:06;;;;;;;9.37;2.17;;;12.50;99.90;;;12.90;66.28;101030.47;4841011;28;103723;-46
2022/11/29 03:20:44;;;;;;;4.20;2.53;;;12.50;99.90;;;12.87;66.15;101030.56;4842798;28;100176;-49
2022/11/29 03:23:26;;;;;;;3.87;1.93;;;12.40;99.90;;;12.85;66.24;101024.47;4824027;28;97207;-48
2022/11/29 03:26:18;;;;;;;4.20;1.97;;;12.40;99.90;;;12.84;66.14;101028.88;4843564;28;96945;-45
2022/11/29 03:29:09;;;;;;;5.17;2.37;;;12.40;99.90;;;12.82;66.34;101026.31;4836488;28;104497;-47
2022/11/29 03:31:47;;;;;;;3.77;2.73;;;12.40;99.90;;;12.82;66.34;101038.69;4841509;28;102298;-46
2022/11/29 03:34:24;;;;;;;7.17;3.17;;;12.40;99.90;;;12.88;65.83;101037.59;4832886;28;97668;-47
2022/11/29 03:37:19;;;;;;;3.23;2.00;;;12.40;99.90;;;12.92;65.53;101044.50;4844274;28;97164;-45
2022/11/29 03:40:02;;;;;;;4.67;2.83;;;12.50;99.90;;;12.95;65.42;101044.38;4820957;28;102338;-45
2022/11/29 03:42:42;;;;;;;5.13;2.93;;;12.50;99.90;;;12.92;65.81;101044.50;4842373;28;99825;-46
2022/11/29 03:45:29;;;;;;;5.73;2.73;;;12.50;99.90;;;12.92;65.74;101044.50;4839002;28;97577;-49
2022/11/29 03:48:04;;;;;;;4.50;2.57;;;12.50;99.90;;;12.91;65.82;101046.28;4828625;29;97052;-47
2022/11/29 03:50:41;;;;;;;6.27;2.43;;;12.50;99.90;;;12.88;66.02;101043.75;4842737;28;96756;-45
2022/11/29 03:53:44;;;;;;;11.00;3.67;;;12.50;99.90;;;13.00;65.27;101047.69;4828613;29;96979;-48
2022/11/29 03:56:31;;;;;;;9.23;3.90;;;12.60;99.90;;;13.01;65.26;101054.72;4833601;28;105421;-45
2022/11/29 03:59:37;;;;;;;7.37;2.27;;;12.60;99.90;;;13.07;65.06;101057.13;4839465;28;97475;-46
2022/11/29 04:02:23;;;;;;;6.07;3.27;;;12.60;99.90;;;13.01;65.22;101054.72;4835076;28;98866;-49
2022/11/29 04:05:17;;;;;;;10.47;4.03;;;12.60;99.90;;;12.95;65.53;101054.97;4839710;28;97179;-45
2022/11/29 04:08:24;;;;;;;9.90;4.23;;;12.50;99.90;;;12.90;66.00;101056.94;4837280;28;97070;-50
2022/11/29 04:10:53;;;;;;;7.57;3.60;;;12.50;99.90;;;12.91;65.68;101059.53;4839182;28;97078;-45
2022/11/29 04:13:53;;;;;;;9.27;3.67;;;12.50;99.90;;;12.89;65.73;101057.84;4851432;28;97292;-46
2022/11/29 04:17:11;;;;;;;14.40;4.13;;;12.50;99.90;;;12.87;65.89;101068.47;4830472;28;99853;-50
2022/11/29 04:19:58;;;;;;;5.83;2.73;;;12.50;99.90;;;12.85;66.04;101069.47;4837265;28;97954;-47
2022/11/29 04:23:07;;;;;;;11.20;3.57;;;12.50;99.90;;;12.82;66.03;101073.97;4842131;28;98819;-45
2022/11/29 04:26:11;;;;;;;10.63;3.60;;;12.50;99.90;;;12.82;66.19;101071.31;4839056;28;101818;-49
2022/11/29 04:28:59;;;;;;;8.93;4.40;;;12.50;99.90;;;12.82;66.37;101071.31;4841045;28;99981;-47
2022/11/29 04:31:58;;;;;;;5.67;3.40;;;12.50;99.90;;;12.89;66.01;101071.09;4838187;28;97736;-48
2022/11/29 04:35:02;;;;;;;8.13;3.23;;;12.50;99.90;;;12.89;66.15;101073.75;4849423;28;99187;-48
2022/11/29 04:37:58;;;;;;;6.13;3.47;;;12.50;99.90;;;12.89;66.27;101081.69;4824997;28;100607;-47
2022/11/29 04:40:58;;;;;;;12.10;3.90;;;12.50;99.90;;;12.86;66.22;101081.78;4842251;28;102324;-48
2022/11/29 04:43:52;;;;;;;7.20;3.73;;;12.50;99.90;;;12.86;66.20;101081.78;4836612;28;97165;-51
2022/11/29 04:46:37;;;;;;;11.80;4.83;;;12.50;99.90;;;12.86;66.29;101084.44;4836942;28;97028;-49
2022/11/29 04:49:36;;;;;;;11.20;4.37;;;12.50;99.90;;;12.85;66.18;101088.00;4830941;28;96842;-49
2022/11/29 04:52:20;;;;;;;10.83;3.43;;;12.50;99.90;;;12.91;66.10;101085.13;4834686;28;97289;-52
2022/11/29 04:55:03;;;;;;;9.07;4.00;;;12.50;99.90;;;12.99;65.60;101098.91;4849062;28;96797;-48
2022/11/29 04:57:35;;;;;;;9.13;3.47;;;12.50;99.90;;;12.96;65.66;101093.75;4832709;28;97571;-47
2022/11/29 05:00:11;;;;;;;10.63;3.37;;;12.60;99.90;;;12.97;65.83;101100.78;4832716;28;98608;-50
2022/11/29 05:03:10;;;;;;;12.20;3.97;;;12.60;99.90;;;13.00;65.85;101106.81;4840441;28;97041;-50
2022/11/29 05:06:07;;;;;;;8.27;4.07;;;12.60;99.90;;;13.08;65.34;101103.88;4827837;28;97330;-48
2022/11/29 05:08:48;;;;;;;9.03;3.07;;;12.60;99.90;;;13.23;64.58;101108.59;4826061;28;97197;-47
2022/11/29 05:12:00;;;;;;;19.27;4.63;;;12.70;99.90;;;13.14;65.10;101114.22;4844964;28;97110;-51
2022/11/29 05:14:47;;;;;;;16.23;4.23;;;12.70;99.90;;;13.15;65.22;101121.25;4845345;28;102366;-52
2022/11/29 05:17:38;;;;;;;10.73;4.90;;;12.70;99.90;;;13.17;65.11;101126.50;4846913;28;97259;-48
2022/11/29 05:20:34;;;;;;;10.93;3.80;;;12.70;99.90;;;13.14;65.02;101123.94;4839466;28;97153;-51
2022/11/29 05:23:44;;;;;;;8.73;3.67;;;12.70;99.90;;;13.10;65.64;101124.06;4836323;28;97568;-47
2022/11/29 05:26:38;;;;;;;24.63;4.67;;;12.70;99.90;;;13.13;65.47;101131.03;4834878;28;97213;-48
2022/11/29 05:29:12;;;;;;;14.17;4.23;;;12.70;99.90;;;13.14;65.17;101126.59;4838648;28;96734;-50
2022/11/29 05:32:28;;;;;;;8.03;4.13;;;12.70;99.90;;;13.23;65.28;101134.22;4827961;28;96667;-51
2022/11/29 05:35:43;;;;;;;14.57;5.17;;;12.80;99.90;;;13.15;65.62;101137.13;4817836;28;103228;-51
2022/11/29 05:38:39;;;;;;;12.93;5.33;;;12.80;99.90;;;13.18;65.53;101134.41;4835759;28;102853;-51
2022/11/29 05:41:33;;;;;;;12.10;3.97;;;12.70;99.90;;;13.14;65.45;101135.41;4820868;29;97299;-49
2022/11/29 05:44:27;;;;;;;14.63;5.00;;;12.70;99.90;;;13.20;65.61;101143.16;4832671;28;96929;-50
2022/11/29 05:47:02;;;;;;;16.97;5.63;;;12.80;99.90;;;13.19;65.31;101148.53;4828499;29;97622;-51
2022/11/29 05:50:10;;;;;;;14.37;4.67;;;12.80;99.90;;;13.26;64.26;101145.56;4834858;28;101532;-48
2022/11/29 05:53:27;;;;;;;15.00;5.17;;;12.80;99.90;;;13.33;64.63;101155.03;4826342;28;97516;-48
2022/11/29 05:56:35;;;;;;;11.33;4.63;;;12.90;99.90;;;13.17;65.85;101151.22;4832221;28;99589;-48
2022/11/29 05:59:11;;;;;;;11.13;5.57;;;12.80;99.90;;;13.09;66.19;101153.28;4831138;28;101841;-51
2022/11/29 06:02:16;;;;;;;20.87;5.80;;;12.70;99.90;;;13.15;65.76;101158.31;4847276;28;98613;-49
2022/11/29 06:05:08;;;;;;;15.13;4.77;;;12.70;99.90;;;13.16;65.71;101160.03;4833643;28;96894;-47
2022/11/29 06:07:44;;;;;;;21.60;5.13;;;12.80;99.90;;;13.16;65.92;101165.34;4822769;28;97240;-51
2022/11/29 06:10:17;;;;;;;16.77;5.47;;;12.80;99.90;;;13.25;65.32;101169.47;4837312;28;98654;-54
2022/11/29 06:13:09;;;;;;;13.00;4.43;;;12.80;99.90;;;13.15;65.95;101166.25;4819004;29;98423;-53
2022/11/29 06:16:04;;;;;;;9.23;4.27;;;12.80;99.90;;;13.16;66.07;101175.94;4819853;28;97924;-52
2022/11/29 06:18:44;;;;;;;15.37;4.93;;;12.80;99.90;;;13.13;66.04;101185.78;4835925;28;98648;-51
2022/11/29 06:22:09;;;;;;;19.83;5.10;;;12.70;99.90;;;13.13;65.75;101189.31;4832826;28;96980;-50
2022/11/29 06:25:15;;;;;;;13.37;3.83;;;12.70;99.90;;;13.11;66.13;101188.50;4813432;28;99957;-49
2022/11/29 06:28:26;;;;;;;16.13;4.07;;;12.70;99.90;;;13.03;66.28;101193.25;4849301;28;97997;-50
2022/11/29 06:31:00;;;;;;;17.87;5.47;;;12.70;99.90;;;12.98;66.49;101197.81;4792371;29;97723;-52
2022/11/29 06:34:03;;;;;;;12.00;3.83;;;12.60;99.90;;;12.98;66.43;101197.81;4765823;29;100687;-48
2022/11/29 06:36:54;;;;;;;18.17;6.47;;;12.60;99.90;;;13.13;65.79;101199.91;4822266;28;101283;-48
2022/11/29 06:39:20;;;;;;;17.47;4.67;;;12.70;99.90;;;13.19;65.28;101202.38;4830513;28;97038;-51
2022/11/29 06:41:47;;;;;;;9.57;4.00;;;12.80;99.90;;;13.12;65.74;101200.81;4844024;28;97628;-53
2022/11/29 06:44:14;;;;;;;13.00;4.83;;;12.70;99.90;;;13.10;65.87;101197.38;4846156;28;96965;-49
2022/11/29 06:47:00;;;;;;;18.87;5.50;;;12.70;99.90;;;13.13;65.72;101196.38;4854765;28;96887;-53
2022/11/29 06:49:42;;;;;;;11.70;4.40;;;12.70;99.90;;;13.13;65.28;101210.50;4837303;28;97392;-52
2022/11/29 06:52:34;;;;;;;14.97;5.03;;;12.70;99.90;;;13.39;63.61;101215.72;4845934;28;97092;-53
2022/11/29 06:55:07;;;;;;;15.67;4.47;;;12.80;99.90;;;13.42;64.07;101206.78;4840535;28;97216;-48
2022/11/29 06:58:03;;;;;;;20.63;4.20;;;12.90;99.90;;;13.37;64.59;101220.22;4845803;28;101193;-48
2022/11/29 07:00:43;;;;;;;17.63;5.70;;;12.90;99.90;;;13.28;64.90;101217.03;4846158;28;96840;-48
2022/11/29 07:03:27;;;;;;;16.80;6.27;;;12.80;99.90;;;13.20;65.00;101222.63;4850398;28;97069;-51
2022/11/29 07:05:53;;;;;;;21.97;5.57;;;12.80;99.90;;;13.19;64.78;101228.88;4835452;28;97676;-50
2022/11/29 07:08:22;;;;;;;15.73;4.97;;;12.80;99.90;;;13.13;65.05;101228.19;4841979;28;97265;-52
2022/11/29 07:10:52;;;;;;;18.60;3.73;;;12.70;99.90;;;13.13;65.15;101239.63;4840073;28;97352;-50
2022/11/29 07:13:19;;;;;;;21.67;6.00;;;12.70;99.90;;;13.05;65.14;101237.28;4838006;28;97052;-52
2022/11/29 07:15:59;;;;;;;18.10;5.80;;;12.70;99.90;;;12.99;65.50;101236.63;4844431;28;97081;-48
2022/11/29 07:18:43;;;;;;;14.07;4.47;;;12.60;99.90;;;12.93;65.70;101244.81;4834200;28;97228;-46
2022/11/29 07:21:47;;;;;;;21.93;5.43;;;12.50;99.90;;;12.95;65.74;101240.31;4823671;29;97604;-48
2022/11/29 07:24:37;;;;;;;22.67;4.37;;;12.50;99.90;;;13.01;65.49;101245.38;4821670;28;97086;-47
2022/11/29 07:27:18;;;;;;;15.20;5.23;;;12.60;99.90;;;13.10;64.71;101245.91;4834081;28;98746;-47
2022/11/29 07:30:18;;;;;;;24.03;5.07;;;12.70;99.90;;;13.10;64.86;101251.22;4821440;28;104058;-45
2022/11/29 07:33:02;;;;;;;15.63;5.07;;;12.60;99.90;;;13.16;64.45;101251.91;4824676;29;98535;-48
2022/11/29 07:35:39;;;;;;;15.67;5.17;;;12.70;99.90;;;13.12;64.68;101248.50;4841995;28;96957;-45
2022/11/29 07:38:23;;;;;;;12.07;4.40;;;12.70;99.90;;;13.21;64.38;101261.44;4841240;28;98783;-55
2022/11/29 07:40:57;;;;;;;12.57;3.90;;;12.80;99.90;;;13.20;64.32;101262.38;4839267;28;101259;-48
2022/11/29 07:44:00;;;;;;;13.10;4.87;;;12.80;99.90;;;13.21;64.42;101258.81;4836493;28;97442;-50
2022/11/29 07:46:27;;;;;;;15.07;4.60;;;12.70;99.90;;;13.22;64.15;101260.53;4834282;28;98870;-48
2022/11/29 07:48:53;;;;;;;14.10;4.73;;;12.80;99.90;;;13.19;64.22;101268.59;4840554;28;97173;-50
2022/11/29 07:51:18;;;;;;;19.03;5.13;;;12.80;99.90;;;13.17;64.14;101262.47;4820872;28;97117;-51
2022/11/29 07:53:44;;;;;;;12.77;4.53;;;12.70;99.90;;;13.11;64.44;101268.81;4839646;28;108389;-50
2022/11/29 07:56:15;;;;;;;13.33;4.70;;;12.70;99.90;;;13.10;64.71;101271.53;4836523;28;105429;-46
2022/11/29 07:58:41;;;;;;;14.13;4.20;;;12.70;99.90;;;13.13;64.29;101274.06;4837420;28;99128;-48
2022/11/29 08:01:07;;;;;;;12.60;3.87;;;12.70;99.90;;;13.11;64.58;101273.25;4839921;28;97102;-48
2022/11/29 08:03:34;;;;;;;16.33;5.67;;;12.70;99.90;;;13.23;64.05;101272.84;4841417;28;97053;-49
2022/11/29 08:06:01;;;;;;;11.00;3.60;;;12.70;99.90;;;13.18;64.60;101285.41;4839868;28;97054;-47
2022/11/29 08:08:27;;;;;;;15.97;3.80;;;12.80;99.90;;;13.21;64.07;101285.28;4832550;28;104290;-52
2022/11/29 08:10:52;;;;;;;12.87;4.47;;;12.80;99.90;;;13.22;63.96;101292.31;4840440;28;99627;-48
2022/11/29 08:13:19;;;;;;;13.87;4.47;;;12.80;99.90;;;13.22;63.98;101289.66;4835616;28;97235;-50
2022/11/29 08:15:46;;;;;;;18.33;4.47;;;12.70;99.90;;;13.13;64.19;101295.25;4841755;28;97318;-50
2022/11/29 08:18:13;;;;;;;10.40;2.93;;;12.70;99.90;;;13.27;63.67;101295.66;4835363;28;99621;-50
2022/11/29 08:20:40;;;;;;;9.50;4.00;;;12.80;99.90;;;13.28;63.55;101302.69;4841740;28;97497;-50
2022/11/29 08:23:08;;;;;;;15.47;4.03;;;12.80;99.90;;;13.32;63.46;101303.47;4836877;28;96998;-53
2022/11/29 08:25:34;;;;;;;14.50;3.37;;;12.90;99.90;;;13.26;63.98;101307.19;4820867;28;97452;-49
2022/11/29 08:28:02;;;;;;;14.03;4.20;;;12.80;99.90;;;13.38;63.33;101314.69;4835813;28;97805;-47
2022/11/29 08:30:28;;;;;;;11.80;4.10;;;12.90;99.90;;;13.44;62.92;101312.72;4835283;28;98459;-52
2022/11/29 08:32:54;;;;;;;18.90;4.47;;;13.00;99.90;;;13.32;63.34;101309.63;4840431;28;102363;-51
2022/11/29 08:35:22;;;;;;;12.93;4.40;;;12.90;99.90;;;13.33;63.34;101311.34;4836190;28;106703;-50
2022/11/29 08:37:48;;;;;;;14.83;5.10;;;12.90;99.90;;;13.27;63.50;101316.84;4840213;28;98828;-51
2022/11/29 08:40:15;;;;;;;18.13;4.57;;;12.80;99.90;;;13.16;64.03;101323.41;4833493;28;97394;-49
2022/11/29 08:42:40;;;;;;;10.53;3.80;;;12.70;99.90;;;13.13;64.56;101329.69;4839250;28;96597;-48
2022/11/29 08:45:08;;;;;;;13.13;4.40;;;12.70;99.90;;;13.10;64.61;101329.81;4833703;28;97127;-52
2022/11/29 08:47:34;;;;;;;18.23;3.90;;;12.70;99.90;;;13.13;64.52;101329.69;4835678;28;102419;-49
2022/11/29 08:50:15;;;;;;;15.20;3.83;;;12.70;99.90;;;13.11;64.28;101328.88;4836489;28;97615;-49
2022/11/29 08:55:39;;;;;;;18.33;3.33;;;12.80;99.90;;;13.12;64.19;101343.84;4834843;28;98218;-47
2022/11/29 08:58:14;;;;;;;12.60;3.60;;;12.70;99.90;;;13.10;64.08;101345.69;4836310;28;97375;-48
2022/11/29 09:00:44;;;;;;;8.77;2.73;;;12.70;99.90;;;13.07;64.52;101340.53;4835873;28;101228;-49
2022/11/29 09:05:54;;;;;;;15.23;4.90;;;12.70;99.90;;;13.08;64.74;101350.19;4838419;28;99780;-47
2022/11/29 09:08:20;;;;;;;14.00;3.97;;;12.70;99.90;;;13.09;64.82;101343.97;4835732;28;97562;-47
2022/11/29 09:10:47;;;;;;;11.80;4.00;;;12.70;99.90;;;13.14;64.55;101344.66;4840638;28;97130;-44
2022/11/29 09:13:13;;;;;;;14.37;4.10;;;12.80;99.90;;;13.19;64.35;101345.41;4838627;28;97410;-53
2022/11/29 09:15:41;;;;;;;13.40;3.97;;;12.80;99.90;;;13.27;63.93;101350.44;4834714;28;98164;-46
2022/11/29 09:18:07;;;;;;;15.60;4.00;;;12.80;99.90;;;13.22;64.15;101363.84;4829302;29;97660;-52
2022/11/29 09:20:33;;;;;;;10.57;3.60;;;12.80;99.90;;;13.17;64.49;101357.81;4832680;28;115373;-48
2022/11/29 09:23:00;;;;;;;10.30;4.00;;;12.80;99.90;;;13.26;63.54;101365.47;4839439;28;97230;-46
2022/11/29 09:25:26;;;;;;;12.10;4.13;;;12.80;99.90;;;13.18;63.66;101374.59;4829036;28;97389;-46
2022/11/29 09:27:52;;;;;;;11.93;4.07;;;12.80;99.90;;;13.28;63.30;101370.69;4840777;28;96668;-47
2022/11/29 09:30:18;;;;;;;14.47;3.83;;;12.90;99.90;;;13.32;63.09;101370.56;4835681;28;108075;-48
2022/11/29 09:32:45;;;;;;;12.20;4.40;;;12.90;99.90;;;13.28;63.03;101376.88;4840425;28;97005;-47
2022/11/29 09:35:11;;;;;;;7.70;3.27;;;12.90;99.90;;;13.25;63.12;101387.56;4840115;28;98388;-48
2022/11/29 09:37:41;;;;;;;16.97;4.20;;;12.90;99.90;;;13.15;63.41;101379.97;4833997;28;107139;-50
2022/11/29 09:40:15;;;;;;;9.73;4.10;;;12.80;99.90;;;13.30;63.01;101384.75;4839462;28;97743;-49
2022/11/29 09:43:22;;;;;;;18.50;4.33;;;12.90;99.90;;;13.24;62.79;101390.28;4833741;28;101428;-46
2022/11/29 09:45:56;;;;;;;15.40;4.53;;;12.90;99.90;;;13.23;63.10;101389.41;4828477;28;97129;-49
2022/11/29 09:48:53;;;;;;;12.80;4.43;;;12.80;99.90;;;13.19;63.02;101392.25;4815125;28;98631;-46
2022/11/29 09:51:35;;;;;;;10.23;3.43;;;12.80;99.90;;;13.30;62.71;101401.53;4833806;28;96877;-49
2022/11/29 09:54:15;;;;;;;11.00;3.67;;;12.90;99.90;;;13.39;61.87;101393.25;4834468;28;96952;-49
2022/11/29 09:56:48;;;;;;;10.83;3.63;;;13.10;99.90;;;13.28;62.06;101398.06;4832675;28;97522;-49
2022/11/29 09:59:22;;;;;;;16.40;4.40;;;12.90;99.90;;;13.23;63.03;101399.16;4835671;28;97513;-48
2022/11/29 10:01:58;;;;;;;9.73;3.80;;;12.90;99.90;;;13.26;62.40;101414.94;4822443;29;101864;-46
2022/11/29 10:04:30;;;;;;;13.93;4.93;;;12.90;99.90;;;13.24;62.95;101417.66;4833472;28;96761;-48
2022/11/29 10:07:12;;;;;;;9.10;4.17;;;12.80;99.90;;;13.40;62.50;101417.97;4832012;28;103108;-45
2022/11/29 10:10:00;;;;;;;16.63;4.47;;;13.00;99.90;;;13.46;61.66;101422.22;4836812;28;97511;-50
2022/11/29 10:12:35;;;;;;;12.23;4.10;;;13.20;99.90;;;13.51;61.49;101414.94;4835556;28;96727;-51
2022/11/29 10:15:12;;;;;;;14.83;4.13;;;13.20;99.90;;;13.52;61.56;101417.53;4828176;28;97515;-46
2022/11/29 10:17:50;;;;;;;12.23;4.80;;;13.20;99.90;;;13.39;62.27;101422.41;4840604;28;97157;-46
2022/11/29 10:20:26;;;;;;;19.67;5.47;;;13.10;99.90;;;13.29;63.36;101421.00;4845867;28;98218;-46
2022/11/29 10:23:00;;;;;;;13.20;4.00;;;12.90;99.90;;;13.17;62.96;101413.47;4820903;29;101038;-46
2022/11/29 10:25:45;;;;;;;18.10;4.60;;;12.80;99.90;;;12.99;63.06;101422.00;4836018;28;97157;-45
2022/11/29 10:28:18;;;;;;;18.80;5.57;;;12.60;99.90;;;12.86;63.58;101415.38;4837934;28;96813;-46
2022/11/29 10:30:45;;;;;;;10.17;3.40;;;12.50;99.90;;;12.75;64.08;101415.75;4833892;28;102558;-45
2022/11/29 10:33:28;;;;;;;15.57;4.93;;;12.30;99.90;;;12.69;64.32;101405.34;4821892;29;97511;-50
2022/11/29 10:35:58;;;;;;;12.17;4.40;;;12.30;99.90;;;12.66;64.09;101414.25;4826067;28;101527;-48
2022/11/29 10:38:24;;;;;;;16.47;4.87;;;12.30;99.90;;;12.55;64.79;101405.78;4836415;28;98158;-46
2022/11/29 10:41:01;;;;;;;21.00;5.23;;;12.20;99.90;;;12.50;64.84;101407.72;4841453;28;97701;-47
2022/11/29 10:43:27;;;;;;;8.40;4.50;;;12.20;99.90;;;12.46;65.60;101406.09;4834074;28;98298;-45
2022/11/29 10:45:57;;;;;;;14.00;4.20;;;12.10;99.90;;;12.45;65.11;101407.03;4840999;28;108204;-47
2022/11/29 10:48:32;;;;;;;9.43;3.87;;;12.10;99.90;;;12.43;64.88;101422.06;4830587;28;96911;-45
2022/11/29 10:50:59;;;;;;;8.47;3.13;;;12.10;99.90;;;12.39;64.96;101415.13;4832797;28;99851;-46
2022/11/29 10:53:31;;;;;;;12.07;4.33;;;12.10;99.90;;;12.40;65.19;101415.09;4836584;28;102600;-50
2022/11/29 10:56:29;;;;;;;8.97;3.40;;;12.10;99.90;;;12.35;65.18;101418.78;4841790;28;96765;-49
2022/11/29 10:59:04;;;;;;;7.60;3.37;;;12.00;99.90;;;12.21;65.87;101422.72;4815665;29;97125;-51
2022/11/29 11:01:40;;;;;;;17.57;4.50;;;12.00;99.90;;;12.16;66.50;101419.38;4818151;28;97395;-51
2022/11/29 11:04:13;;;;;;;13.40;4.80;;;11.90;99.90;;;12.17;66.39;101421.09;4837379;28;97237;-52